Time;durP1;ratioP1;P1;durP2;ratioP2;P2;SDS_P1;SDS_P2;PMS_P1;PMS_P2;Temp;Humidity;BMP_temperature;BMP_pressure;BME280_temperature;BME280_humidity;BME280_pressure;Samples;Min_cycle;Max_cycle;Signal;HPM_P1;HPM_P2
2022/12/06 00:01:10;;;;;;;11.90;5.13;;;4.80;99.90;;;;;;5058225;28;20086;-43
2022/12/06 00:03:37;;;;;;;12.43;5.40;;;4.80;99.90;;;;;;5058084;28;20058;-44
2022/12/06 00:06:08;;;;;;;14.02;5.50;;;4.80;99.90;;;;;;5057801;28;20057;-42
2022/12/06 00:08:35;;;;;;;15.50;5.13;;;4.80;99.90;;;;;;5057911;28;20067;-45
2022/12/06 00:11:13;;;;;;;15.63;6.75;;;4.70;99.90;;;;;;5057285;28;20152;-43
2022/12/06 00:13:40;;;;;;;15.35;6.78;;;4.80;99.90;;;;;;5058992;28;20110;-48
2022/12/06 00:16:08;;;;;;;20.33;5.45;;;4.80;99.90;;;;;;5057578;28;20098;-46
2022/12/06 00:18:37;;;;;;;14.57;5.85;;;4.80;99.90;;;;;;5054833;28;20045;-47
2022/12/06 00:21:11;;;;;;;12.07;6.55;;;4.80;99.90;;;;;;5056288;28;20589;-46
2022/12/06 00:23:44;;;;;;;15.77;5.60;;;4.70;99.90;;;;;;5057744;28;20058;-42
2022/12/06 00:26:09;;;;;;;17.70;6.15;;;4.80;99.90;;;;;;5044543;28;20586;-46
2022/12/06 00:28:36;;;;;;;14.73;6.32;;;4.80;99.90;;;;;;5057217;28;20127;-48
2022/12/06 00:31:05;;;;;;;13.38;6.28;;;4.80;99.90;;;;;;5058092;28;20083;-44
2022/12/06 00:33:33;;;;;;;15.30;5.75;;;4.80;99.90;;;;;;5057585;28;20044;-46
2022/12/06 00:36:01;;;;;;;15.05;5.30;;;4.80;99.90;;;;;;5057141;28;20051;-46
2022/12/06 00:38:28;;;;;;;9.18;4.93;;;4.80;99.90;;;;;;5054602;28;20052;-42
2022/12/06 00:41:03;;;;;;;12.02;5.07;;;4.90;99.90;;;;;;5044750;28;20056;-45
2022/12/06 00:43:30;;;;;;;12.93;5.15;;;4.80;99.90;;;;;;5055016;28;20139;-45
2022/12/06 00:45:56;;;;;;;9.65;4.30;;;4.80;99.90;;;;;;5055059;28;20508;-46
2022/12/06 00:48:22;;;;;;;7.50;4.25;;;4.80;99.90;;;;;;5056628;28;20117;-47
2022/12/06 00:50:48;;;;;;;11.52;4.45;;;4.80;99.90;;;;;;5056874;28;20040;-42
2022/12/06 00:53:13;;;;;;;7.65;3.78;;;4.90;99.90;;;;;;5050561;28;20517;-47
2022/12/06 00:55:39;;;;;;;12.63;4.50;;;4.80;99.90;;;;;;5055687;28;20092;-48
2022/12/06 00:58:05;;;;;;;10.27;3.35;;;4.80;99.90;;;;;;5055953;28;20041;-48
2022/12/06 01:00:31;;;;;;;10.00;3.83;;;4.80;99.90;;;;;;5056395;28;20457;-48
2022/12/06 01:02:57;;;;;;;9.20;3.50;;;4.70;99.90;;;;;;5056616;28;20140;-45
2022/12/06 01:05:23;;;;;;;7.68;3.47;;;4.80;99.90;;;;;;5056649;28;20097;-44
2022/12/06 01:07:49;;;;;;;11.55;3.75;;;4.70;99.90;;;;;;5054012;28;20670;-46
2022/12/06 01:10:15;;;;;;;9.02;3.72;;;4.70;99.90;;;;;;5055637;28;20047;-45
2022/12/06 01:12:40;;;;;;;6.93;3.33;;;4.70;99.90;;;;;;5055892;28;20080;-49
2022/12/06 01:15:07;;;;;;;10.98;3.53;;;4.70;99.90;;;;;;5055814;28;20091;-46
2022/12/06 01:17:34;;;;;;;12.65;3.50;;;4.70;99.90;;;;;;5054613;28;20124;-43
2022/12/06 01:19:59;;;;;;;9.85;3.80;;;4.70;99.90;;;;;;5053740;28;20052;-47
2022/12/06 01:22:25;;;;;;;8.05;3.90;;;4.70;99.90;;;;;;5054125;28;20055;-48
2022/12/06 01:24:51;;;;;;;9.43;3.78;;;4.70;99.90;;;;;;5055189;28;20529;-49
2022/12/06 01:27:17;;;;;;;12.05;3.70;;;4.70;99.90;;;;;;5055087;28;20131;-46
2022/12/06 01:29:42;;;;;;;9.90;3.70;;;4.70;99.90;;;;;;5055383;28;20048;-43
2022/12/06 01:32:08;;;;;;;11.50;3.85;;;4.70;99.90;;;;;;5055881;28;20154;-44
2022/12/06 01:34:34;;;;;;;9.13;4.43;;;4.70;99.90;;;;;;5055893;28;20127;-44
2022/12/06 01:36:59;;;;;;;8.82;4.03;;;4.60;99.90;;;;;;5054969;28;20045;-48
2022/12/06 01:39:25;;;;;;;7.60;4.00;;;4.70;99.90;;;;;;5007138;28;1089169;-44
2022/12/06 01:41:50;;;;;;;7.50;3.75;;;4.80;99.90;;;;;;5066478;28;20056;-48
2022/12/06 01:44:57;;;;;;;6.85;3.83;;;4.70;99.90;;;;;;5056333;28;20044;-47
2022/12/06 01:47:28;;;;;;;10.00;3.75;;;4.70;99.90;;;;;;5041659;28;20048;-44
2022/12/06 01:49:53;;;;;;;6.57;3.70;;;4.60;99.90;;;;;;5052103;28;20434;-45
2022/12/06 01:52:23;;;;;;;6.93;4.20;;;4.70;99.90;;;;;;5055660;28;20294;-46
2022/12/06 01:54:49;;;;;;;9.95;4.10;;;4.70;99.90;;;;;;5061166;28;20419;-44
2022/12/06 01:57:16;;;;;;;10.88;4.05;;;4.70;99.90;;;;;;5056500;28;20134;-44
2022/12/06 01:59:42;;;;;;;8.82;4.25;;;4.60;99.90;;;;;;5056111;28;20060;-49
2022/12/06 02:02:08;;;;;;;8.27;3.78;;;4.60;99.90;;;;;;5057216;28;20052;-44
2022/12/06 02:04:35;;;;;;;8.20;3.58;;;4.70;99.90;;;;;;5039974;28;20079;-45
2022/12/06 02:07:01;;;;;;;9.40;3.67;;;4.60;99.90;;;;;;5056226;28;20059;-46
2022/12/06 02:09:29;;;;;;;12.43;4.00;;;4.60;99.90;;;;;;5035489;28;20162;-46
2022/12/06 02:11:55;;;;;;;9.93;3.75;;;4.50;99.90;;;;;;5053125;28;20061;-45
2022/12/06 02:14:31;;;;;;;7.88;4.15;;;4.60;99.90;;;;;;5038106;28;21019;-46
2022/12/06 02:17:25;;;;;;;6.75;3.38;;;4.60;99.90;;;;;;5039416;28;20044;-48
2022/12/06 02:20:13;;;;;;;6.07;3.38;;;4.50;99.90;;;;;;5058522;28;20792;-46
2022/12/06 02:22:47;;;;;;;6.35;3.38;;;4.50;99.90;;;;;;5071575;28;20305;-47
2022/12/06 02:25:40;;;;;;;10.00;3.60;;;4.50;99.90;;;;;;5058487;28;20062;-44
2022/12/06 02:28:30;;;;;;;4.53;3.00;;;4.50;99.90;;;;;;5058676;28;20086;-48
2022/12/06 02:31:11;;;;;;;10.27;3.55;;;4.50;99.90;;;;;;5059643;28;20302;-44
2022/12/06 02:33:41;;;;;;;7.10;3.90;;;4.50;99.90;;;;;;5058376;28;20510;-48
2022/12/06 02:36:19;;;;;;;10.70;4.15;;;4.50;99.90;;;;;;5058361;28;20373;-43
2022/12/06 02:38:52;;;;;;;5.93;3.28;;;4.40;99.90;;;;;;5053396;28;20048;-43
2022/12/06 02:41:24;;;;;;;10.25;3.63;;;4.50;99.90;;;;;;5051515;28;20052;-46
2022/12/06 02:43:58;;;;;;;7.88;3.83;;;4.40;99.90;;;;;;5059031;28;20385;-44
2022/12/06 02:46:28;;;;;;;10.55;4.10;;;4.40;99.90;;;;;;5090736;28;20048;-43
2022/12/06 02:48:57;;;;;;;11.95;4.05;;;4.50;99.90;;;;;;5058150;28;20506;-44
2022/12/06 02:51:23;;;;;;;8.13;3.25;;;4.50;99.90;;;;;;5057679;28;20064;-43
2022/12/06 02:53:52;;;;;;;4.47;3.40;;;4.50;99.90;;;;;;5059411;28;20442;-47
2022/12/06 02:56:18;;;;;;;11.00;4.60;;;4.50;99.90;;;;;;5057062;28;20144;-43
2022/12/06 02:58:44;;;;;;;8.85;4.10;;;4.50;99.90;;;;;;5058481;28;20567;-45
2022/12/06 03:01:18;;;;;;;9.27;3.95;;;4.40;99.90;;;;;;5049549;28;20065;-44
2022/12/06 03:03:49;;;;;;;;;;;4.60;99.90;;;;;;5056039;28;20317;-46
2022/12/06 03:06:39;;;;;;;8.23;3.90;;;4.50;99.90;;;;;;5056153;28;19924;-43
2022/12/06 03:09:12;;;;;;;8.55;3.72;;;4.50;99.90;;;;;;5055876;28;20072;-46
2022/12/06 03:12:02;;;;;;;7.63;4.00;;;4.40;99.90;;;;;;5058048;28;20114;-45
2022/12/06 03:15:02;;;;;;;7.43;3.63;;;4.50;99.90;;;;;;5058564;28;20056;-43
2022/12/06 03:17:44;;;;;;;8.65;3.80;;;4.40;99.90;;;;;;5033959;28;20166;-43
2022/12/06 03:20:20;;;;;;;6.47;3.58;;;4.40;99.90;;;;;;5035209;28;20539;-44
2022/12/06 03:22:52;;;;;;;9.20;3.72;;;4.30;99.90;;;;;;5018314;28;20053;-47
2022/12/06 03:25:17;;;;;;;10.32;4.00;;;4.30;99.90;;;;;;5034525;28;20059;-45
2022/12/06 03:27:45;;;;;;;10.38;4.05;;;4.30;99.90;;;;;;5017798;28;20089;-45
2022/12/06 03:30:13;;;;;;;13.90;4.28;;;4.20;99.90;;;;;;5018179;28;20419;-48
2022/12/06 03:32:42;;;;;;;8.95;3.63;;;4.20;99.90;;;;;;5042858;28;20516;-47
2022/12/06 03:35:12;;;;;;;6.90;3.60;;;4.10;99.90;;;;;;5022238;28;20056;-47
2022/12/06 03:37:42;;;;;;;6.47;3.78;;;4.00;99.90;;;;;;5017249;28;20076;-44
2022/12/06 03:40:15;;;;;;;8.55;3.80;;;4.00;99.90;;;;;;5034611;28;20069;-44
2022/12/06 03:42:41;;;;;;;6.55;3.42;;;3.90;99.90;;;;;;5034321;28;20462;-46
2022/12/06 03:45:10;;;;;;;9.00;3.75;;;3.90;99.90;;;;;;5034473;28;20063;-43
2022/12/06 03:47:50;;;;;;;5.60;3.72;;;4.00;99.90;;;;;;5017958;28;20590;-43
2022/12/06 03:50:22;;;;;;;10.93;4.00;;;4.00;99.90;;;;;;5035157;28;20545;-44
2022/12/06 03:52:50;;;;;;;8.30;4.78;;;3.90;99.90;;;;;;5035226;28;20099;-46
2022/12/06 03:55:16;;;;;;;8.55;3.97;;;4.00;99.90;;;;;;5057455;28;20048;-45
2022/12/06 03:57:42;;;;;;;10.45;4.53;;;4.00;99.90;;;;;;5056590;28;20109;-42
2022/12/06 04:00:08;;;;;;;9.82;4.32;;;4.00;99.90;;;;;;5057715;28;20608;-44
2022/12/06 04:02:34;;;;;;;10.43;4.35;;;4.00;99.90;;;;;;5057373;28;20044;-48
2022/12/06 04:04:59;;;;;;;9.80;4.40;;;4.00;99.90;;;;;;5057232;28;20048;-45
2022/12/06 04:07:25;;;;;;;9.23;3.92;;;4.00;99.90;;;;;;5057576;28;20455;-46
2022/12/06 04:10:01;;;;;;;7.45;3.80;;;3.90;99.90;;;;;;5055390;28;20082;-46
2022/12/06 04:15:15;;;;;;;16.48;4.72;;;3.90;99.90;;;;;;5034148;28;20103;-43
2022/12/06 04:20:27;;;;;;;8.65;4.55;;;3.80;99.90;;;;;;5019511;28;20061;-47
2022/12/06 04:23:03;;;;;;;10.13;4.57;;;3.90;99.90;;;;;;5014283;28;20049;-46
2022/12/06 04:25:34;;;;;;;10.25;5.13;;;3.90;99.90;;;;;;5013664;28;20096;-48
2022/12/06 04:38:57;;;;;;;10.15;4.95;;;4.00;99.90;;;;;;5019271;28;20091;-46
2022/12/06 04:44:07;;;;;;;11.13;4.65;;;3.90;99.90;;;;;;5015134;28;20049;-43
2022/12/06 04:46:33;;;;;;;11.05;5.22;;;4.00;99.90;;;;;;5013387;28;20061;-43
2022/12/06 04:48:59;;;;;;;8.85;4.38;;;3.90;99.90;;;;;;5013373;28;20397;-48
2022/12/06 04:51:25;;;;;;;13.40;5.00;;;4.00;99.90;;;;;;5015608;28;20459;-45
2022/12/06 04:53:50;;;;;;;10.63;4.82;;;4.00;99.90;;;;;;5051448;28;20515;-43
2022/12/06 04:56:17;;;;;;;9.52;4.80;;;4.10;99.90;;;;;;5056113;28;20048;-45
2022/12/06 04:58:43;;;;;;;10.75;5.22;;;4.10;99.90;;;;;;5054931;28;20044;-46
2022/12/06 05:01:09;;;;;;;11.05;5.30;;;4.00;99.90;;;;;;5055592;28;20067;-44
2022/12/06 05:03:37;;;;;;;9.27;4.47;;;4.10;99.90;;;;;;5055043;28;20685;-50
2022/12/06 05:06:03;;;;;;;8.75;4.63;;;4.10;99.90;;;;;;5054615;28;20155;-44
2022/12/06 05:08:29;;;;;;;10.02;4.05;;;4.10;99.90;;;;;;5056243;28;20086;-45
2022/12/06 05:10:55;;;;;;;10.40;4.57;;;4.10;99.90;;;;;;5054261;28;20048;-45
2022/12/06 05:13:21;;;;;;;9.70;4.70;;;4.10;99.90;;;;;;5056696;28;20045;-43
2022/12/06 05:16:00;;;;;;;8.57;3.75;;;4.20;99.90;;;;;;5056273;28;20080;-45
2022/12/06 05:18:27;;;;;;;9.38;3.78;;;4.10;99.90;;;;;;5054511;28;20298;-42
2022/12/06 05:21:28;;;;;;;9.23;4.00;;;4.30;99.90;;;;;;5056611;28;20350;-45
2022/12/06 05:23:54;;;;;;;8.30;3.75;;;4.30;99.90;;;;;;5033668;28;20048;-46
2022/12/06 05:26:23;;;;;;;10.25;4.32;;;4.20;99.90;;;;;;5032789;28;20144;-45
2022/12/06 05:28:49;;;;;;;8.25;4.30;;;4.30;99.90;;;;;;5016338;28;20041;-45
2022/12/06 05:31:15;;;;;;;7.10;3.55;;;4.20;99.90;;;;;;5033511;28;20324;-43
2022/12/06 05:33:41;;;;;;;8.80;3.65;;;4.30;99.90;;;;;;5033481;28;20044;-45
2022/12/06 05:36:16;;;;;;;4.95;3.78;;;4.30;99.90;;;;;;5033522;28;20056;-47
2022/12/06 05:38:41;;;;;;;8.25;3.40;;;4.30;99.90;;;;;;5032663;28;20065;-44
2022/12/06 05:41:07;;;;;;;8.25;3.63;;;4.30;99.90;;;;;;5033383;28;20045;-49
2022/12/06 05:43:33;;;;;;;7.38;3.78;;;4.30;99.90;;;;;;5033498;28;20592;-43
2022/12/06 05:45:59;;;;;;;9.00;3.58;;;4.20;99.90;;;;;;5032936;28;20489;-46
2022/12/06 05:48:25;;;;;;;6.28;3.83;;;4.30;99.90;;;;;;5033178;28;20056;-44
2022/12/06 05:50:52;;;;;;;11.30;3.60;;;4.30;99.90;;;;;;5033552;28;20068;-46
2022/12/06 05:53:19;;;;;;;8.05;3.50;;;4.20;99.90;;;;;;5026906;28;20093;-43
2022/12/06 05:55:45;;;;;;;4.32;3.15;;;4.20;99.90;;;;;;5033060;28;20053;-47
2022/12/06 05:58:11;;;;;;;7.95;3.20;;;4.20;99.90;;;;;;5063851;28;20412;-44
2022/12/06 06:00:37;;;;;;;5.68;3.22;;;4.10;99.90;;;;;;5055585;28;20518;-45
2022/12/06 06:03:03;;;;;;;5.45;2.92;;;4.10;99.90;;;;;;5055781;28;20048;-42
2022/12/06 06:05:29;;;;;;;5.45;3.00;;;4.00;99.90;;;;;;5054779;28;20366;-45
2022/12/06 06:07:55;;;;;;;5.93;2.80;;;4.00;99.90;;;;;;5055908;28;20050;-46
2022/12/06 06:10:21;;;;;;;8.35;2.80;;;3.80;99.90;;;;;;5055194;28;20329;-43
2022/12/06 06:12:47;;;;;;;7.72;2.97;;;3.80;99.90;;;;;;5056179;28;20415;-43
2022/12/06 06:15:12;;;;;;;5.18;2.53;;;3.60;99.90;;;;;;5055527;28;20549;-42
2022/12/06 06:17:38;;;;;;;10.45;3.10;;;3.50;99.90;;;;;;5051777;28;20044;-46
2022/12/06 06:20:06;;;;;;;6.72;2.83;;;3.50;99.90;;;;;;5055859;28;20151;-45
2022/12/06 06:22:33;;;;;;;5.15;2.78;;;3.40;99.90;;;;;;5055780;28;20051;-45
2022/12/06 06:25:00;;;;;;;3.70;2.78;;;3.30;99.90;;;;;;5055933;28;20056;-45
2022/12/06 06:27:25;;;;;;;6.05;3.20;;;3.30;99.90;;;;;;5055988;28;20052;-46
2022/12/06 06:29:51;;;;;;;6.65;2.80;;;3.10;99.90;;;;;;5055910;28;20041;-47
2022/12/06 06:32:17;;;;;;;7.03;2.70;;;3.00;99.90;;;;;;5054974;28;20040;-42
2022/12/06 06:34:43;;;;;;;7.88;2.78;;;2.90;99.90;;;;;;5056081;28;20087;-42
2022/12/06 06:37:08;;;;;;;5.32;3.33;;;2.70;99.90;;;;;;5054476;28;20079;-46
2022/12/06 06:39:34;;;;;;;5.53;2.92;;;2.80;99.90;;;;;;5048110;28;20056;-43
2022/12/06 06:42:00;;;;;;;5.45;2.42;;;2.70;99.90;;;;;;5058007;28;20052;-45
2022/12/06 06:44:25;;;;;;;8.27;2.90;;;2.70;99.90;;;;;;5060169;28;20426;-45
2022/12/06 06:46:51;;;;;;;6.65;3.20;;;2.60;99.90;;;;;;5059004;28;20044;-42
2022/12/06 06:49:17;;;;;;;6.00;2.70;;;2.50;99.90;;;;;;5059447;28;20040;-47
2022/12/06 06:51:44;;;;;;;8.38;3.28;;;2.50;99.90;;;;;;5061728;28;20418;-43
2022/12/06 06:54:10;;;;;;;4.00;2.95;;;2.40;99.90;;;;;;5060589;28;20053;-48
2022/12/06 06:56:36;;;;;;;8.05;3.05;;;2.40;99.90;;;;;;5058923;28;20400;-43
2022/12/06 06:59:02;;;;;;;8.32;4.28;;;2.30;99.90;;;;;;5058686;28;20075;-45
2022/12/06 07:01:28;;;;;;;8.60;5.88;;;2.40;99.90;;;;;;5059453;28;20123;-43
2022/12/06 07:03:54;;;;;;;10.13;5.97;;;2.50;99.90;;;;;;5060075;28;20048;-44
2022/12/06 07:06:19;;;;;;;25.85;14.68;;;2.40;99.90;;;;;;5059303;28;20579;-47
2022/12/06 07:08:46;;;;;;;52.75;28.85;;;2.50;99.90;;;;;;5057863;28;20064;-46
2022/12/06 07:11:13;;;;;;;18.15;11.02;;;2.50;99.90;;;;;;5058988;28;20074;-44
2022/12/06 07:13:40;;;;;;;16.45;8.45;;;2.50;99.90;;;;;;5057331;28;20088;-43
2022/12/06 07:16:11;;;;;;;11.70;7.22;;;2.40;99.90;;;;;;5058931;28;20110;-43
2022/12/06 07:18:36;;;;;;;11.57;6.00;;;2.30;99.90;;;;;;5057318;28;20534;-45
2022/12/06 07:21:07;;;;;;;31.88;9.98;;;2.20;99.90;;;;;;5059483;28;20059;-43
2022/12/06 07:23:34;;;;;;;11.85;6.90;;;2.20;99.90;;;;;;5059176;28;20059;-44
2022/12/06 07:26:08;;;;;;;10.57;6.10;;;2.30;99.90;;;;;;5057385;28;20064;-47
2022/12/06 07:28:35;;;;;;;9.95;5.65;;;2.10;99.90;;;;;;5058558;28;20155;-45
2022/12/06 07:31:19;;;;;;;10.70;5.50;;;2.20;99.90;;;;;;5059336;28;20045;-43
2022/12/06 07:33:46;;;;;;;10.43;5.65;;;2.20;99.90;;;;;;5058783;28;20048;-47
2022/12/06 07:36:13;;;;;;;7.15;5.32;;;2.20;99.90;;;;;;5058974;28;20056;-45
2022/12/06 07:38:39;;;;;;;10.85;5.78;;;2.30;99.90;;;;;;5057292;28;20123;-45
2022/12/06 07:46:41;;;;;;;9.68;3.80;;;2.50;99.90;;;;;;5056632;28;20350;-44
2022/12/06 07:49:06;;;;;;;7.88;3.53;;;2.40;99.90;;;;;;5056571;28;20056;-47
2022/12/06 07:51:33;;;;;;;7.63;4.05;;;2.50;99.90;;;;;;5058196;28;20052;-44
2022/12/06 07:53:59;;;;;;;6.28;3.95;;;2.60;99.90;;;;;;5066821;28;20426;-42
2022/12/06 07:56:24;;;;;;;11.30;4.15;;;2.60;99.90;;;;;;5055206;28;20105;-43
2022/12/06 07:58:50;;;;;;;8.45;3.70;;;2.80;99.90;;;;;;5049323;28;20045;-44
2022/12/06 08:01:16;;;;;;;8.45;3.83;;;2.80;99.90;;;;;;5041111;28;20048;-44
2022/12/06 08:03:42;;;;;;;8.70;3.88;;;2.90;99.90;;;;;;5039740;28;20045;-46
2022/12/06 08:06:07;;;;;;;13.25;4.40;;;2.80;99.90;;;;;;5036536;28;20048;-48
2022/12/06 08:08:34;;;;;;;7.43;4.10;;;3.00;99.90;;;;;;5042855;28;20040;-43
2022/12/06 08:11:01;;;;;;;8.95;3.70;;;2.90;99.90;;;;;;5055852;28;20118;-49
2022/12/06 08:13:28;;;;;;;10.77;4.32;;;3.00;99.90;;;;;;5054385;28;20044;-48
2022/12/06 08:15:54;;;;;;;14.50;4.30;;;3.00;99.90;;;;;;5045734;28;20469;-44
2022/12/06 08:18:19;;;;;;;9.15;4.38;;;3.10;99.90;;;;;;5037339;28;20041;-45
2022/12/06 08:20:45;;;;;;;8.77;3.90;;;3.20;99.90;;;;;;5040093;28;20121;-42
2022/12/06 08:23:11;;;;;;;7.90;4.07;;;3.10;99.90;;;;;;5041757;28;20473;-45
2022/12/06 08:25:36;;;;;;;8.57;4.15;;;3.20;99.90;;;;;;5036567;28;20055;-44
2022/12/06 08:28:02;;;;;;;8.32;4.18;;;3.20;99.90;;;;;;5036389;28;20033;-44
2022/12/06 08:30:28;;;;;;;9.45;5.55;;;3.30;99.90;;;;;;5054317;28;20044;-44
2022/12/06 08:32:54;;;;;;;12.20;4.22;;;3.30;99.90;;;;;;5055761;28;20033;-43
2022/12/06 08:35:20;;;;;;;7.93;4.40;;;3.40;99.90;;;;;;5054592;28;20102;-42
2022/12/06 08:37:45;;;;;;;12.13;4.65;;;3.50;99.90;;;;;;5055551;28;20045;-46
2022/12/06 08:40:11;;;;;;;8.10;4.28;;;3.50;99.90;;;;;;5055439;28;20045;-46
2022/12/06 08:42:37;;;;;;;6.70;4.43;;;3.50;99.90;;;;;;5056577;28;20438;-46
2022/12/06 08:45:03;;;;;;;7.50;3.85;;;3.50;99.90;;;;;;5056568;28;20055;-44
2022/12/06 08:47:29;;;;;;;10.80;4.18;;;3.60;99.90;;;;;;5056451;28;20052;-46
2022/12/06 08:49:57;;;;;;;10.48;4.90;;;3.50;99.90;;;;;;5057073;28;20624;-41
2022/12/06 08:52:22;;;;;;;7.60;4.40;;;3.60;99.90;;;;;;5056592;28;20116;-44
2022/12/06 08:54:48;;;;;;;10.45;3.85;;;3.70;99.90;;;;;;5054825;28;20325;-43
2022/12/06 08:57:14;;;;;;;8.63;4.53;;;3.70;99.90;;;;;;5056187;28;20058;-43
2022/12/06 08:59:39;;;;;;;9.95;4.55;;;3.70;99.90;;;;;;5056449;28;20040;-45
2022/12/06 09:02:06;;;;;;;9.95;5.32;;;3.80;99.90;;;;;;5055593;28;20102;-45
2022/12/06 09:04:31;;;;;;;9.68;3.92;;;3.90;99.90;;;;;;5056022;28;20044;-48
2022/12/06 09:06:57;;;;;;;11.23;3.90;;;4.00;99.90;;;;;;5056462;28;20419;-49
2022/12/06 09:09:23;;;;;;;6.63;3.55;;;4.00;99.90;;;;;;5054567;28;20040;-44
2022/12/06 09:11:49;;;;;;;6.93;3.60;;;4.00;99.90;;;;;;5056336;28;20083;-46
2022/12/06 09:14:16;;;;;;;9.77;3.80;;;4.00;99.90;;;;;;5057240;28;20063;-47
2022/12/06 09:16:43;;;;;;;11.68;8.57;;;4.00;99.90;;;;;;5048602;28;20426;-44
2022/12/06 09:19:10;;;;;;;12.55;9.50;;;4.10;99.90;;;;;;5049115;28;20503;-47
2022/12/06 09:21:38;;;;;;;6.32;4.05;;;4.10;99.90;;;;;;5044534;28;20051;-41
2022/12/06 09:24:05;;;;;;;7.60;4.03;;;4.20;99.90;;;;;;5078131;27;20057;-43
2022/12/06 09:26:31;;;;;;;8.75;4.18;;;4.30;99.90;;;;;;5049370;28;20053;-42
2022/12/06 09:28:57;;;;;;;7.85;3.70;;;4.40;99.90;;;;;;5047779;28;20449;-44
2022/12/06 09:31:24;;;;;;;8.35;3.08;;;4.40;99.90;;;;;;5052246;28;20518;-47
2022/12/06 09:33:50;;;;;;;10.77;3.72;;;4.50;99.90;;;;;;5041129;28;20075;-41
2022/12/06 09:36:21;;;;;;;8.30;3.25;;;4.50;99.90;;;;;;5045317;28;20083;-47
2022/12/06 09:38:52;;;;;;;5.93;3.00;;;4.60;99.90;;;;;;5043976;28;20401;-46
2022/12/06 09:41:39;;;;;;;7.78;3.53;;;4.70;99.90;;;;;;5045712;28;20497;-46
2022/12/06 09:44:23;;;;;;;6.57;3.15;;;4.80;99.90;;;;;;5053114;28;20141;-47
2022/12/06 09:47:20;;;;;;;9.35;3.30;;;4.80;99.90;;;;;;5054760;28;20101;-45
2022/12/06 09:50:05;;;;;;;7.25;3.40;;;4.90;99.90;;;;;;5045306;28;20085;-48
2022/12/06 09:53:11;;;;;;;5.85;3.10;;;5.00;99.90;;;;;;5042338;28;20060;-42
2022/12/06 09:56:00;;;;;;;9.18;3.20;;;5.10;99.90;;;;;;5038783;28;20057;-45
2022/12/06 09:58:41;;;;;;;8.10;3.05;;;5.00;99.90;;;;;;5037724;28;20055;-45
2022/12/06 10:01:15;;;;;;;9.05;3.47;;;5.00;99.90;;;;;;5048492;28;20482;-45
2022/12/06 10:04:06;;;;;;;6.35;2.83;;;5.10;99.90;;;;;;5038369;28;20067;-44
2022/12/06 10:07:01;;;;;;;9.02;3.13;;;5.20;99.90;;;;;;5037548;28;20523;-47
2022/12/06 10:09:53;;;;;;;7.78;2.75;;;5.30;99.90;;;;;;4972710;28;20050;-42
2022/12/06 10:12:48;;;;;;;9.13;3.47;;;5.40;99.90;;;;;;4973168;28;20300;-46
2022/12/06 10:15:26;;;;;;;5.57;2.70;;;5.50;99.90;;;;;;4959771;28;20502;-44
2022/12/06 10:18:29;;;;;;;5.63;3.10;;;5.60;99.90;;;;;;4965559;28;20050;-45
2022/12/06 10:21:07;;;;;;;6.70;2.80;;;5.60;99.90;;;;;;4970962;28;20067;-44
2022/12/06 10:23:57;;;;;;;6.85;3.15;;;5.70;99.90;;;;;;4958453;28;20062;-44
2022/12/06 10:26:37;;;;;;;4.68;3.05;;;5.80;99.90;;;;;;4941823;28;20093;-45
2022/12/06 10:29:16;;;;;;;6.85;2.92;;;5.90;99.90;;;;;;4964636;28;20057;-45
2022/12/06 10:31:59;;;;;;;7.65;3.20;;;6.00;99.90;;;;;;4954346;28;20063;-45
2022/12/06 10:34:40;;;;;;;6.18;3.35;;;6.00;99.90;;;;;;4960819;28;20161;-44
2022/12/06 10:37:20;;;;;;;8.07;3.30;;;6.10;99.90;;;;;;4976112;28;20058;-45
2022/12/06 10:39:59;;;;;;;6.90;3.78;;;6.10;99.90;;;;;;4976305;28;20124;-42
2022/12/06 10:42:46;;;;;;;6.60;3.08;;;6.10;99.90;;;;;;4965897;28;20238;-47
2022/12/06 10:48:20;;;;;;;8.13;3.38;;;6.20;99.90;;;;;;5059651;28;20082;-45
2022/12/06 10:50:53;;;;;;;6.40;3.20;;;6.20;99.90;;;;;;5058858;28;20048;-43
2022/12/06 10:53:22;;;;;;;6.38;3.78;;;6.20;99.90;;;;;;5057756;28;20517;-42
2022/12/06 10:55:53;;;;;;;6.88;3.50;;;6.20;99.90;;;;;;5044759;28;20045;-45
2022/12/06 10:58:35;;;;;;;5.80;3.45;;;6.20;99.90;;;;;;5039517;28;20048;-44
2022/12/06 11:01:10;;;;;;;10.95;3.95;;;6.20;99.90;;;;;;5038994;28;20044;-45
2022/12/06 11:04:03;;;;;;;5.03;2.85;;;6.30;99.90;;;;;;5045786;28;20059;-43
2022/12/06 11:06:41;;;;;;;5.97;2.75;;;6.20;99.90;;;;;;5055268;28;20052;-44
2022/12/06 11:09:22;;;;;;;4.57;2.60;;;6.20;99.90;;;;;;5057153;28;20472;-45
2022/12/06 11:11:48;;;;;;;4.85;2.75;;;6.20;99.90;;;;;;5058401;28;20162;-48
2022/12/06 11:14:22;;;;;;;5.65;2.88;;;6.30;99.90;;;;;;5057078;28;20044;-43
2022/12/06 11:17:14;;;;;;;5.80;2.40;;;6.30;99.90;;;;;;5057301;28;20133;-43
2022/12/06 11:19:48;;;;;;;4.50;2.45;;;6.40;99.90;;;;;;5033852;28;20916;-44
2022/12/06 11:22:31;;;;;;;4.00;2.50;;;6.40;99.90;;;;;;5035243;28;20061;-46
2022/12/06 11:25:26;;;;;;;5.82;2.85;;;6.50;99.90;;;;;;5017817;28;20533;-45
2022/12/06 11:27:59;;;;;;;5.32;2.35;;;6.50;99.90;;;;;;5033924;28;20053;-45
2022/12/06 11:30:27;;;;;;;;;;;6.60;99.90;;;;;;5019592;28;20364;-44
2022/12/06 11:32:54;;;;;;;4.38;1.90;;;6.50;99.90;;;;;;5034522;28;19925;-45
2022/12/06 11:35:24;;;;;;;6.35;2.25;;;6.50;99.90;;;;;;5034113;28;20517;-45
2022/12/06 11:37:59;;;;;;;6.60;2.50;;;6.50;99.90;;;;;;5016137;28;20614;-43
2022/12/06 11:40:35;;;;;;;4.63;1.75;;;6.50;99.90;;;;;;5034061;28;20060;-44
2022/12/06 11:43:05;;;;;;;5.55;2.10;;;6.50;99.90;;;;;;5034845;28;20060;-42
2022/12/06 11:45:36;;;;;;;8.25;2.58;;;6.50;99.90;;;;;;5033099;28;20045;-45
2022/12/06 11:48:17;;;;;;;6.20;1.95;;;6.50;99.90;;;;;;5034062;28;20047;-44
2022/12/06 11:50:45;;;;;;;5.03;2.15;;;6.50;99.90;;;;;;5034533;28;20061;-47
2022/12/06 11:53:27;;;;;;;6.45;1.98;;;6.50;99.90;;;;;;5034623;28;20128;-43
2022/12/06 11:55:59;;;;;;;3.90;1.90;;;6.50;99.90;;;;;;5038057;28;20546;-49
2022/12/06 11:58:47;;;;;;;5.43;2.03;;;6.50;99.90;;;;;;5058303;28;20059;-43
2022/12/06 12:01:13;;;;;;;5.63;2.85;;;6.50;99.90;;;;;;5058292;28;20054;-46
2022/12/06 12:03:42;;;;;;;7.07;1.70;;;6.50;99.90;;;;;;5058542;28;20061;-45
2022/12/06 12:06:17;;;;;;;3.65;1.60;;;6.60;99.90;;;;;;5057681;28;20123;-46
2022/12/06 12:09:15;;;;;;;5.05;1.58;;;6.60;99.90;;;;;;5055467;28;20111;-44
2022/12/06 12:11:41;;;;;;;5.75;2.13;;;6.60;99.90;;;;;;5047710;28;20063;-43
2022/12/06 12:14:17;;;;;;;6.13;2.00;;;6.70;99.90;;;;;;5057514;28;20052;-42
2022/12/06 12:16:46;;;;;;;3.22;1.80;;;6.70;99.90;;;;;;5056661;28;20502;-47
2022/12/06 12:19:31;;;;;;;6.95;2.20;;;6.70;99.90;;;;;;5056659;28;20045;-45
2022/12/06 12:21:58;;;;;;;4.95;1.70;;;6.80;99.90;;;;;;5056466;28;20044;-46
2022/12/06 12:24:41;;;;;;;2.83;1.63;;;6.80;99.90;;;;;;5055542;28;20055;-44
2022/12/06 12:27:26;;;;;;;4.15;2.10;;;6.80;99.90;;;;;;5056500;28;20476;-45
2022/12/06 12:30:18;;;;;;;6.88;1.30;;;6.80;99.90;;;;;;5057652;28;20079;-47
2022/12/06 12:32:45;;;;;;;4.70;1.40;;;6.90;99.90;;;;;;5054323;28;20056;-45
2022/12/06 12:35:20;;;;;;;3.72;1.88;;;6.80;99.90;;;;;;5056299;28;20064;-44
2022/12/06 12:37:53;;;;;;;2.67;1.13;;;6.80;99.90;;;;;;5056418;28;20401;-44
2022/12/06 12:40:28;;;;;;;2.93;1.83;;;6.80;99.90;;;;;;5074666;28;20056;-45
2022/12/06 12:43:12;;;;;;;2.78;1.30;;;6.80;99.90;;;;;;5056381;28;20748;-46
2022/12/06 12:45:59;;;;;;;3.75;1.33;;;6.90;99.90;;;;;;5056844;28;20458;-47
2022/12/06 12:48:26;;;;;;;2.25;1.40;;;6.90;99.90;;;;;;5054840;28;20044;-48
2022/12/06 12:50:55;;;;;;;4.05;1.38;;;6.80;99.90;;;;;;5056791;28;20059;-43
2022/12/06 12:53:31;;;;;;;6.82;1.80;;;6.80;99.90;;;;;;5056522;28;20333;-43
2022/12/06 12:56:15;;;;;;;6.18;2.15;;;6.80;99.90;;;;;;5056461;28;20058;-47
2022/12/06 12:58:42;;;;;;;6.55;2.08;;;6.80;99.90;;;;;;5056761;28;20044;-45
2022/12/06 13:01:22;;;;;;;6.82;2.50;;;6.80;99.90;;;;;;5056963;28;20577;-44
2022/12/06 13:03:53;;;;;;;4.80;2.15;;;6.70;99.90;;;;;;5056016;28;20051;-46
2022/12/06 13:06:39;;;;;;;4.63;1.70;;;6.70;99.90;;;;;;5055747;28;20198;-44
2022/12/06 13:09:13;;;;;;;5.47;1.70;;;6.60;99.90;;;;;;5052373;28;20055;-46
2022/12/06 13:11:44;;;;;;;3.83;2.00;;;6.60;99.90;;;;;;5057292;28;20077;-48
2022/12/06 13:14:19;;;;;;;4.75;1.75;;;6.60;99.90;;;;;;5056841;28;20126;-47
2022/12/06 13:16:48;;;;;;;6.65;1.55;;;6.60;99.90;;;;;;5056456;28;20429;-47
2022/12/06 13:19:17;;;;;;;3.20;1.40;;;6.60;99.90;;;;;;5055920;28;20561;-46
2022/12/06 13:21:44;;;;;;;6.18;1.88;;;6.60;99.90;;;;;;5056840;28;20072;-46
2022/12/06 13:24:09;;;;;;;5.68;1.75;;;6.60;99.90;;;;;;5055901;28;20626;-48
2022/12/06 13:26:49;;;;;;;2.53;1.50;;;6.60;99.90;;;;;;5055953;28;20052;-50
2022/12/06 13:29:21;;;;;;;4.05;1.77;;;6.60;99.90;;;;;;5057045;28;20063;-46
2022/12/06 13:31:49;;;;;;;4.35;1.88;;;6.60;99.90;;;;;;5056138;28;20044;-45
2022/12/06 13:34:46;;;;;;;2.92;1.70;;;6.70;99.90;;;;;;5054606;28;20458;-48
2022/12/06 13:37:52;;;;;;;4.75;2.10;;;6.70;99.90;;;;;;5055044;28;20462;-48
2022/12/06 13:40:33;;;;;;;5.43;2.13;;;6.70;99.90;;;;;;5031416;28;20065;-43
2022/12/06 13:43:00;;;;;;;5.15;1.98;;;6.70;99.90;;;;;;5033085;28;20056;-47
2022/12/06 13:45:42;;;;;;;3.03;1.70;;;6.70;99.90;;;;;;5032296;28;20083;-46